createdAt,value
2016-10-09T04:01:08.049Z,16.22
2016-10-09T04:01:33.628Z,16.18
2016-10-09T04:01:59.183Z,16.26
2016-10-09T04:02:24.782Z,16.26
2016-10-09T04:02:50.321Z,16.22
2016-10-09T04:03:15.856Z,16.23
2016-10-09T04:03:41.380Z,16.22
2016-10-09T04:04:06.919Z,16.22
2016-10-09T04:04:32.440Z,16.25
2016-10-09T04:04:58.163Z,16.22
2016-10-09T04:05:23.711Z,16.2
2016-10-09T04:05:49.332Z,16.25
2016-10-09T04:06:14.947Z,16.22
2016-10-09T04:06:40.510Z,16.18
2016-10-09T04:08:26.436Z,16.3
2016-10-09T04:08:51.988Z,16.22
2016-10-09T04:09:17.547Z,16.22
2016-10-09T04:09:43.121Z,16.25
2016-10-09T04:10:08.677Z,16.26
2016-10-09T04:10:34.428Z,16.23
2016-10-09T04:11:00.001Z,16.22
2016-10-09T04:11:25.582Z,16.26
2016-10-09T04:11:51.942Z,16.31
2016-10-09T04:12:17.507Z,16.26
2016-10-09T04:12:43.095Z,16.22
2016-10-09T04:13:08.651Z,16.26
2016-10-09T04:13:34.254Z,16.23
2016-10-09T04:13:59.883Z,16.22
2016-10-09T04:14:25.366Z,16.23
2016-10-09T04:14:50.907Z,16.22
2016-10-09T04:15:16.446Z,16.22
2016-10-09T04:15:42.042Z,16.16
2016-10-09T04:16:07.713Z,16.2
2016-10-09T04:16:33.316Z,16.2
2016-10-09T04:16:58.975Z,16.18
2016-10-09T04:17:24.528Z,16.18
2016-10-09T04:17:50.079Z,16.25
2016-10-09T04:18:15.629Z,16.25
2016-10-09T04:18:41.141Z,16.23
2016-10-09T04:19:06.692Z,16.22
2016-10-09T04:19:32.239Z,16.22
2016-10-09T04:19:57.844Z,16.25
2016-10-09T04:20:23.368Z,16.23
2016-10-09T04:20:48.928Z,16.22
2016-10-09T04:25:07.849Z,16.2
2016-10-09T04:26:01.468Z,16.22
2016-10-09T04:26:26.998Z,16.2
2016-10-09T04:26:52.568Z,16.22
2016-10-09T04:27:18.110Z,16.22
2016-10-09T04:27:43.681Z,16.15
2016-10-09T04:28:09.276Z,16.22
2016-10-09T04:28:34.852Z,16.25
2016-10-09T04:29:00.529Z,16.26
2016-10-09T04:29:26.088Z,16.23
2016-10-09T04:29:51.638Z,16.23
2016-10-09T04:30:17.188Z,16.23
2016-10-09T04:30:42.779Z,16.2
2016-10-09T04:31:08.336Z,16.18
2016-10-09T04:31:33.889Z,16.2
2016-10-09T04:31:59.450Z,16.16
2016-10-09T04:32:25.033Z,16.16
2016-10-09T04:32:50.581Z,16.23
2016-10-09T04:33:16.173Z,16.16
2016-10-09T04:33:41.680Z,16.2
2016-10-09T04:34:07.210Z,16.2
2016-10-09T04:34:32.768Z,16.18
2016-10-09T04:34:58.312Z,16.22
2016-10-09T04:35:23.852Z,16.23
2016-10-09T04:35:49.527Z,16.16
2016-10-09T04:36:15.071Z,16.2
2016-10-09T04:36:40.631Z,16.16
2016-10-09T04:37:06.275Z,16.22
2016-10-09T04:37:31.831Z,16.15
2016-10-09T04:37:57.625Z,16.25
2016-10-09T04:38:23.165Z,16.16
2016-10-09T04:38:48.767Z,16.22
2016-10-09T04:39:14.377Z,16.22
2016-10-09T04:39:40.114Z,16.18
2016-10-09T04:40:05.735Z,16.2
2016-10-09T04:40:31.353Z,16.26
2016-10-09T04:40:56.899Z,16.18
2016-10-09T04:41:22.577Z,16.22
2016-10-09T04:41:48.160Z,16.22
2016-10-09T04:42:13.721Z,16.2
2016-10-09T04:42:39.272Z,16.23
2016-10-09T04:43:05.021Z,16.15
2016-10-09T04:43:30.609Z,16.23
2016-10-09T04:43:56.162Z,16.18
2016-10-09T04:44:21.725Z,16.23
2016-10-09T04:44:47.287Z,16.23
2016-10-09T04:45:12.853Z,16.18
2016-10-09T04:45:38.429Z,16.16
2016-10-09T04:46:03.989Z,16.16
2016-10-09T04:46:29.548Z,16.15
2016-10-09T04:46:55.103Z,16.23
2016-10-09T04:49:35.764Z,16.22
2016-10-09T04:50:01.318Z,16.15
2016-10-09T04:50:26.941Z,16.16
2016-10-09T04:50:52.507Z,16.27
2016-10-09T04:51:18.058Z,16.16
2016-10-09T04:51:43.625Z,16.22
2016-10-09T04:52:09.211Z,16.22
2016-10-09T04:52:34.841Z,16.23
2016-10-09T04:53:00.404Z,16.18
2016-10-09T04:53:25.946Z,16.23
2016-10-09T04:53:51.492Z,16.22
2016-10-09T04:54:17.031Z,16.22
2016-10-09T04:54:42.599Z,16.25
2016-10-09T04:55:16.731Z,16.23
2016-10-09T04:55:42.306Z,16.25
2016-10-09T04:56:07.891Z,16.31
2016-10-09T04:56:33.479Z,16.2
2016-10-09T04:56:59.009Z,16.23
2016-10-09T04:57:24.826Z,16.2
2016-10-09T04:57:50.397Z,16.2
2016-10-09T04:58:16.649Z,16.23
2016-10-09T04:58:42.235Z,16.22
2016-10-09T04:59:07.791Z,16.22
2016-10-09T04:59:34.033Z,16.23
2016-10-09T04:59:59.611Z,16.22
2016-10-09T05:00:25.881Z,16.25
2016-10-09T05:00:51.479Z,16.25
2016-10-09T05:01:18.623Z,16.26
2016-10-09T05:01:44.166Z,16.18
2016-10-09T05:02:09.801Z,16.23
2016-10-09T05:02:35.361Z,16.26
2016-10-09T05:03:00.931Z,16.18
2016-10-09T05:03:26.741Z,16.26
2016-10-09T05:03:52.301Z,16.2
2016-10-09T05:04:17.844Z,16.23
2016-10-09T05:04:44.081Z,16.25
2016-10-09T05:05:09.697Z,16.25
2016-10-09T05:05:35.866Z,16.26
2016-10-09T05:06:01.439Z,16.23
2016-10-09T06:46:21.285Z,16.23
2016-10-09T06:46:46.850Z,16.3
2016-10-09T06:47:12.410Z,16.31
2016-10-09T06:47:37.961Z,16.26
2016-10-09T06:48:03.516Z,16.31
2016-10-09T06:48:29.265Z,16.31
2016-10-09T06:48:54.825Z,16.33
2016-10-09T06:49:20.364Z,16.37
2016-10-09T06:49:45.916Z,16.37
2016-10-09T06:50:11.460Z,16.37
2016-10-09T06:50:37.157Z,16.38
2016-10-09T06:51:02.731Z,16.42
2016-10-09T06:51:28.264Z,16.38
2016-10-09T06:51:53.820Z,16.38
2016-10-09T06:52:19.738Z,16.45
2016-10-09T06:52:45.309Z,16.48
2016-10-09T06:53:10.864Z,16.49
2016-10-09T06:53:36.428Z,16.42
2016-10-09T06:54:01.986Z,16.52
2016-10-09T06:55:00.118Z,16.4
2016-10-09T06:55:25.686Z,16.5
2016-10-09T06:55:51.293Z,16.44
2016-10-09T06:56:16.850Z,16.45
2016-10-09T06:56:42.429Z,16.45
2016-10-09T06:57:08.090Z,16.45
2016-10-09T06:57:33.704Z,16.6
2016-10-09T06:57:59.276Z,16.55
2016-10-09T06:58:24.922Z,16.58
2016-10-09T06:58:50.491Z,16.6
2016-10-09T06:59:16.031Z,16.56
2016-10-09T06:59:41.578Z,16.56
2016-10-09T07:00:07.256Z,16.58
2016-10-09T07:00:32.818Z,16.6
2016-10-09T07:00:58.380Z,16.62
2016-10-09T07:01:23.906Z,16.6
2016-10-09T07:01:49.459Z,16.62
2016-10-09T07:02:15.032Z,16.55
2016-10-09T07:02:40.579Z,16.67
2016-10-09T07:03:06.133Z,16.58
2016-10-09T07:03:31.689Z,16.67
2016-10-09T07:03:57.427Z,16.63
2016-10-09T07:04:22.979Z,16.67
2016-10-09T07:04:48.615Z,16.65
2016-10-09T07:05:14.240Z,16.7
2016-10-09T07:05:39.785Z,16.74
2016-10-09T07:06:05.358Z,16.7
2016-10-09T07:06:30.930Z,16.67
2016-10-09T07:06:56.496Z,16.73
2016-10-09T07:07:22.061Z,16.74
2016-10-09T07:07:47.626Z,16.7
2016-10-09T07:09:01.128Z,16.73
2016-10-09T07:09:26.710Z,16.71
2016-10-09T07:09:52.261Z,16.73
2016-10-09T07:10:17.807Z,16.65
2016-10-09T07:10:43.376Z,16.81
2016-10-09T07:11:09.496Z,16.71
2016-10-09T07:11:35.326Z,16.71
2016-10-09T07:12:01.186Z,16.75
2016-10-09T07:12:26.759Z,16.8
2016-10-09T07:12:52.329Z,16.75
2016-10-09T07:13:18.654Z,16.77
2016-10-09T07:13:44.563Z,16.75
2016-10-09T07:14:10.339Z,16.77
2016-10-09T07:14:35.972Z,16.83
2016-10-09T07:15:02.147Z,16.81
2016-10-09T07:15:27.699Z,16.81
2016-10-09T07:15:53.286Z,16.78
2016-10-09T07:16:41.217Z,16.75
2016-10-09T07:17:07.660Z,16.8
2016-10-09T07:17:33.237Z,16.92
2016-10-09T07:17:58.818Z,16.83
2016-10-09T07:18:24.489Z,16.88
2016-10-09T07:18:50.053Z,16.9
2016-10-09T07:19:53.441Z,16.88
2016-10-09T07:20:19.050Z,16.85
2016-10-09T07:20:44.587Z,16.93
2016-10-09T07:21:10.115Z,16.93
2016-10-09T07:21:35.675Z,16.95
2016-10-09T07:22:01.261Z,16.98
2016-10-09T07:22:26.820Z,16.93
2016-10-09T07:22:52.367Z,16.95
2016-10-09T07:23:17.907Z,16.92
2016-10-09T07:23:43.482Z,16.99
2016-10-09T07:24:09.024Z,16.93
2016-10-09T07:24:34.590Z,17
2016-10-09T07:25:00.343Z,17.06
2016-10-09T07:25:25.917Z,16.99
2016-10-09T07:25:51.526Z,17.08
2016-10-09T07:26:17.097Z,16.98
2016-10-09T07:26:42.798Z,17.08
2016-10-09T07:27:08.362Z,17.13
2016-10-09T07:27:34.116Z,17.1
2016-10-09T07:27:59.875Z,17.08
2016-10-09T07:28:25.572Z,17.1
2016-10-09T07:28:51.178Z,17.1
2016-10-09T07:29:16.728Z,17.14
2016-10-09T07:29:42.351Z,17.15
2016-10-09T07:30:07.980Z,17.11
2016-10-09T07:30:33.658Z,17.11
2016-10-09T07:30:59.192Z,17.1
2016-10-09T07:31:24.919Z,17.13
2016-10-09T07:31:50.473Z,17.15
2016-10-09T07:32:53.928Z,17.15
2016-10-09T07:33:19.590Z,17.2
2016-10-09T07:33:45.178Z,17.2
2016-10-09T07:34:10.735Z,17.22
2016-10-09T07:34:36.267Z,17.25
2016-10-09T07:35:01.803Z,17.25
2016-10-09T07:35:27.333Z,17.3
2016-10-09T07:35:53.094Z,17.25
2016-10-09T07:36:56.366Z,17.28
2016-10-09T07:37:21.906Z,17.29
2016-10-09T07:37:47.464Z,17.26
2016-10-09T07:38:13.001Z,17.32
2016-10-09T07:38:38.560Z,17.33
2016-10-09T07:39:04.295Z,17.41
2016-10-09T07:39:29.880Z,17.38
2016-10-09T07:39:55.462Z,17.36
2016-10-09T07:40:21.482Z,17.38
2016-10-09T07:40:47.199Z,17.44
2016-10-09T07:41:12.785Z,17.47
2016-10-09T07:41:38.353Z,17.41
2016-10-09T07:42:03.908Z,17.46
2016-10-09T07:42:29.469Z,17.44
2016-10-09T07:42:55.151Z,17.46
2016-10-09T07:43:20.722Z,17.5
2016-10-09T07:43:46.258Z,17.48
2016-10-09T07:44:11.840Z,17.48
2016-10-09T07:44:37.391Z,17.54
2016-10-09T07:45:02.958Z,17.53
2016-10-09T07:45:28.589Z,17.51
2016-10-09T07:45:54.133Z,17.55
2016-10-09T07:46:19.683Z,17.54
2016-10-09T07:46:45.416Z,17.57
2016-10-09T07:47:10.892Z,17.62
2016-10-09T07:47:36.419Z,17.53
2016-10-09T07:48:01.995Z,17.57
2016-10-09T07:48:27.514Z,17.63
2016-10-09T07:48:53.071Z,17.64
2016-10-09T07:49:56.241Z,17.71
2016-10-09T07:50:21.792Z,17.76
2016-10-09T07:50:47.379Z,17.78
2016-10-09T07:51:12.967Z,17.7
2016-10-09T07:51:38.626Z,17.74
2016-10-09T07:52:04.181Z,17.76
2016-10-09T07:52:29.752Z,17.82
2016-10-09T07:52:55.502Z,17.73
2016-10-09T07:53:21.098Z,17.84
2016-10-09T07:53:46.650Z,17.78
2016-10-09T07:54:12.289Z,17.82
2016-10-09T07:54:37.843Z,17.94
2016-10-09T07:55:03.416Z,17.94
2016-10-09T07:55:29.123Z,17.88
2016-10-09T07:55:54.687Z,17.97
2016-10-09T07:56:20.264Z,17.91
2016-10-09T07:56:45.827Z,17.88
2016-10-09T07:57:11.403Z,17.88
2016-10-09T07:57:36.971Z,18
2016-10-09T07:58:02.543Z,17.91
2016-10-09T07:58:28.090Z,17.91
2016-10-09T07:58:53.629Z,18.03
2016-10-09T07:59:19.275Z,17.97
2016-10-09T07:59:44.839Z,18
2016-10-09T08:00:10.416Z,18
2016-10-09T08:00:36.134Z,17.99
2016-10-09T08:01:01.726Z,18.04
2016-10-09T08:01:27.293Z,18.03
2016-10-09T08:01:52.829Z,18.07
2016-10-09T08:02:18.409Z,18.06
2016-10-09T08:02:43.975Z,18.02
2016-10-09T08:03:09.555Z,18.06
2016-10-09T08:03:35.234Z,18.12
2016-10-09T08:04:00.683Z,18.13
2016-10-09T08:04:26.253Z,18.13
2016-10-09T08:04:51.793Z,18.18
2016-10-09T08:05:17.346Z,18.21
2016-10-09T08:05:42.925Z,18.15
2016-10-09T08:06:08.477Z,18.21
2016-10-09T08:06:33.997Z,18.12
2016-10-09T08:06:59.551Z,18.19
2016-10-09T08:07:25.131Z,18.22
2016-10-09T08:07:50.723Z,18.17
2016-10-09T08:08:16.431Z,18.17
2016-10-09T08:08:41.994Z,18.18
2016-10-09T08:09:07.627Z,18.15
2016-10-09T08:09:33.229Z,18.29
2016-10-09T08:09:58.876Z,18.22
2016-10-09T08:10:24.346Z,18.28
2016-10-09T08:10:49.997Z,18.27
2016-10-09T08:11:15.570Z,18.33
2016-10-09T08:11:41.136Z,18.36
2016-10-09T08:12:06.697Z,18.28
2016-10-09T08:12:32.312Z,18.31
2016-10-09T08:12:57.892Z,18.4
2016-10-09T08:13:56.015Z,18.31
2016-10-09T08:14:59.213Z,18.42
2016-10-09T08:15:24.813Z,18.31
2016-10-09T08:15:50.369Z,18.36
2016-10-09T08:16:15.925Z,18.36
2016-10-09T08:16:41.533Z,18.37
2016-10-09T08:17:07.236Z,18.42
2016-10-09T08:17:32.794Z,18.36
2016-10-09T08:17:58.448Z,18.43
2016-10-09T08:18:24.041Z,18.4
2016-10-09T08:18:49.620Z,18.46
2016-10-09T08:19:15.184Z,18.46
2016-10-09T08:19:40.737Z,18.42
2016-10-09T08:20:06.309Z,18.46
2016-10-09T08:20:31.847Z,18.42
2016-10-09T08:20:57.439Z,18.55
2016-10-09T08:21:23.017Z,18.49
2016-10-09T08:21:48.633Z,18.44
2016-10-09T08:22:14.208Z,18.54
2016-10-09T08:22:39.769Z,18.42
2016-10-09T08:23:05.330Z,18.49
2016-10-09T08:23:30.902Z,18.52
2016-10-09T08:23:56.462Z,18.5
2016-10-09T08:24:22.021Z,18.58
2016-10-09T08:24:47.592Z,18.58
2016-10-09T08:25:13.140Z,18.57
2016-10-09T08:25:38.707Z,18.61
2016-10-09T08:26:04.279Z,18.64
2016-10-09T08:26:29.828Z,18.55
2016-10-09T08:26:55.405Z,18.65
2016-10-09T08:27:20.971Z,18.57
2016-10-09T08:27:46.683Z,18.55
2016-10-09T08:28:12.245Z,18.57
2016-10-09T08:28:37.821Z,18.64
2016-10-09T08:29:03.374Z,18.54
2016-10-09T08:29:28.967Z,18.55
2016-10-09T08:29:54.578Z,18.68
2016-10-09T08:30:20.163Z,18.62
2016-10-09T08:30:45.769Z,18.67
2016-10-09T08:31:11.369Z,18.62
2016-10-09T08:31:36.971Z,18.68
2016-10-09T08:32:02.623Z,18.72
2016-10-09T08:32:28.215Z,18.61
2016-10-09T08:32:53.789Z,18.7
2016-10-09T08:33:19.353Z,18.72
2016-10-09T08:33:45.013Z,18.72
2016-10-09T08:34:10.585Z,18.68
2016-10-09T08:34:36.152Z,18.72
2016-10-09T08:35:01.772Z,18.76
2016-10-09T08:35:27.390Z,18.7
2016-10-09T08:35:52.986Z,18.72
2016-10-09T08:36:18.548Z,18.68
2016-10-09T08:36:44.130Z,18.73
2016-10-09T08:37:09.738Z,18.76
2016-10-09T08:37:35.307Z,18.77
2016-10-09T08:38:00.985Z,18.79
2016-10-09T08:38:26.574Z,18.77
2016-10-09T08:38:52.138Z,18.79
2016-10-09T08:39:17.707Z,18.7
2016-10-09T08:39:43.292Z,18.76
2016-10-09T08:40:08.864Z,18.8
2016-10-09T08:40:34.428Z,18.74
2016-10-09T08:41:00.017Z,18.77
2016-10-09T08:41:25.716Z,18.74
2016-10-09T08:41:51.291Z,18.86
2016-10-09T08:42:16.917Z,18.77
2016-10-09T08:42:42.512Z,18.86
2016-10-09T08:43:08.085Z,18.87
2016-10-09T08:43:33.689Z,18.82
2016-10-09T08:43:59.256Z,18.82
2016-10-09T08:44:24.815Z,18.83
2016-10-09T08:44:50.409Z,18.86
2016-10-09T08:45:15.966Z,18.87
2016-10-09T08:45:41.547Z,18.9
2016-10-09T08:46:07.154Z,18.84
2016-10-09T08:46:32.758Z,18.92
2016-10-09T08:46:58.313Z,18.9
2016-10-09T08:47:23.903Z,18.92
2016-10-09T08:47:49.442Z,18.86
2016-10-09T08:48:15.017Z,18.94
2016-10-09T08:48:40.565Z,18.94
2016-10-09T08:49:06.134Z,18.95
2016-10-09T08:49:31.772Z,18.87
2016-10-09T08:49:57.390Z,18.97
2016-10-09T08:50:22.966Z,18.95
2016-10-09T08:50:48.533Z,18.92
2016-10-09T08:51:14.105Z,18.94
2016-10-09T08:51:39.660Z,18.91
2016-10-09T08:52:05.227Z,18.9
2016-10-09T08:52:30.796Z,18.91
2016-10-09T08:52:56.385Z,18.87
2016-10-09T08:53:22.140Z,18.95
2016-10-09T08:53:47.693Z,18.92
2016-10-09T08:54:13.265Z,18.97
2016-10-09T08:54:38.815Z,19.01
2016-10-09T08:55:04.368Z,18.97
2016-10-09T08:56:07.175Z,18.91
2016-10-09T08:56:36.007Z,18.97
2016-10-09T08:58:39.742Z,19.02
2016-10-09T08:59:05.326Z,19.02
2016-10-09T08:59:30.887Z,19.01
2016-10-09T08:59:56.446Z,19.05
2016-10-09T09:00:22.150Z,19.13
2016-10-09T09:00:47.715Z,19.06
2016-10-09T09:01:13.279Z,19.13
2016-10-09T09:01:38.839Z,19.11
2016-10-09T09:02:04.392Z,19.11
2016-10-09T09:02:29.974Z,19.14
2016-10-09T09:02:55.557Z,19.13
2016-10-09T09:03:21.142Z,19.13
2016-10-09T09:03:46.715Z,19.14
2016-10-09T09:04:12.279Z,19.13
2016-10-09T09:04:37.873Z,19.05
2016-10-09T09:05:03.452Z,19.1
2016-10-09T09:05:29.513Z,19.1
2016-10-09T09:05:55.145Z,19.13
2016-10-09T09:06:21.318Z,19.08
2016-10-09T09:06:46.885Z,19.08
2016-10-09T09:07:12.475Z,19.17
2016-10-09T09:07:38.697Z,19.1
2016-10-09T09:08:04.267Z,19.1
2016-10-09T09:08:30.461Z,19.13
2016-10-09T09:08:56.020Z,19.21
2016-10-09T09:09:22.264Z,19.18
2016-10-09T09:09:47.845Z,19.2
2016-10-09T09:10:13.428Z,19.17
2016-10-09T09:10:39.578Z,19.23
2016-10-09T09:11:05.245Z,19.23
2016-10-09T09:11:31.412Z,19.14
2016-10-09T09:11:56.980Z,19.24
2016-10-09T09:13:00.192Z,19.21
2016-10-09T09:13:25.803Z,19.23
2016-10-09T09:13:51.354Z,19.17
2016-10-09T09:14:16.892Z,19.24
2016-10-09T09:14:42.632Z,19.2
2016-10-09T09:15:08.203Z,19.24
2016-10-09T09:16:00.486Z,19.25
2016-10-09T09:16:26.023Z,19.24
2016-10-09T09:16:51.603Z,19.28
2016-10-09T09:17:17.180Z,19.25
2016-10-09T09:17:42.746Z,19.24
2016-10-09T09:18:08.679Z,19.25
2016-10-09T09:18:34.254Z,19.28
2016-10-09T09:19:00.518Z,19.25
2016-10-09T09:19:26.065Z,19.25
2016-10-09T09:19:51.639Z,19.28
2016-10-09T09:20:17.910Z,19.29
2016-10-09T09:20:43.615Z,19.28
2016-10-09T09:21:09.625Z,19.28
2016-10-09T09:21:35.287Z,19.24
2016-10-09T09:22:01.449Z,19.24
2016-10-09T09:22:27.014Z,19.25
2016-10-09T09:22:52.577Z,19.31
2016-10-09T09:23:18.788Z,19.28
2016-10-09T09:23:44.380Z,19.25
2016-10-09T09:24:10.586Z,19.21
2016-10-09T09:24:36.152Z,19.36
2016-10-09T09:25:01.710Z,19.31
2016-10-09T09:25:27.924Z,19.24
2016-10-09T09:25:53.481Z,19.28
2016-10-09T09:26:19.720Z,19.31
2016-10-09T09:26:45.288Z,19.25
2016-10-09T09:27:11.551Z,19.21
2016-10-09T09:27:37.165Z,19.36
2016-10-09T09:28:02.747Z,19.23
2016-10-09T09:28:28.870Z,19.25
2016-10-09T09:28:54.407Z,19.24
2016-10-09T09:29:20.667Z,19.29
2016-10-09T09:29:46.239Z,19.28
2016-10-09T09:30:11.845Z,19.23
2016-10-09T09:30:38.031Z,19.32
2016-10-09T09:31:03.589Z,19.36
2016-10-09T09:31:29.818Z,19.38
2016-10-09T09:31:55.395Z,19.33
2016-10-09T09:32:21.670Z,19.38
2016-10-09T09:32:47.292Z,19.29
2016-10-09T09:33:12.871Z,19.32
2016-10-09T09:33:38.933Z,19.32
2016-10-09T09:34:04.496Z,19.36
2016-10-09T09:34:30.734Z,19.4
2016-10-09T09:34:56.308Z,19.39
2016-10-09T09:35:21.882Z,19.42
2016-10-09T09:35:48.134Z,19.43
2016-10-09T09:36:13.745Z,19.43
2016-10-09T09:36:39.882Z,19.33
2016-10-09T09:37:05.441Z,19.39
2016-10-09T09:37:31.693Z,19.5
2016-10-09T09:37:57.291Z,19.39
2016-10-09T09:38:22.853Z,19.43
2016-10-09T09:38:49.113Z,19.42
2016-10-09T09:39:14.691Z,19.53
2016-10-09T09:39:40.851Z,19.4
2016-10-09T09:40:06.390Z,19.33
2016-10-09T09:40:31.964Z,19.33
2016-10-09T09:40:58.196Z,19.5
2016-10-09T09:41:23.787Z,19.5
2016-10-09T09:41:49.964Z,19.48
2016-10-09T09:42:58.302Z,19.42
2016-10-09T09:43:23.875Z,19.51
2016-10-09T09:43:49.427Z,19.47
2016-10-09T09:44:14.980Z,19.39
2016-10-09T09:44:40.664Z,19.43
2016-10-09T09:45:06.211Z,19.46
2016-10-09T09:45:31.774Z,19.55
2016-10-09T09:45:57.358Z,19.39
2016-10-09T09:46:23.054Z,19.46
2016-10-09T09:46:48.613Z,19.38
2016-10-09T09:47:14.160Z,19.38
2016-10-09T09:47:39.867Z,19.39
2016-10-09T09:48:05.451Z,19.4
2016-10-09T09:48:31.002Z,19.35
2016-10-09T09:48:56.544Z,19.42
2016-10-09T09:49:22.332Z,19.43
2016-10-09T09:49:47.863Z,19.46
2016-10-09T09:50:13.432Z,19.33
2016-10-09T09:51:01.306Z,19.42
2016-10-09T09:51:26.946Z,19.42
2016-10-09T09:51:52.505Z,19.46
2016-10-09T09:52:18.041Z,19.46
2016-10-09T09:52:43.648Z,19.43
2016-10-09T09:53:09.261Z,19.31
2016-10-09T09:53:34.798Z,19.48
2016-10-09T09:54:00.361Z,19.43
2016-10-09T09:54:53.387Z,19.38
2016-10-09T09:55:19.035Z,19.46
2016-10-09T09:55:44.602Z,19.42
2016-10-09T09:56:10.158Z,19.39
2016-10-09T09:56:35.713Z,19.32
2016-10-09T09:57:01.284Z,19.42
2016-10-09T09:57:26.838Z,19.42
2016-10-09T09:57:52.412Z,19.42
2016-10-09T09:58:17.950Z,19.42
2016-10-09T09:58:43.515Z,19.43
2016-10-09T09:59:09.150Z,19.4
2016-10-09T09:59:34.723Z,19.42
2016-10-09T10:00:00.302Z,19.42
2016-10-09T10:00:25.889Z,19.4
2016-10-09T10:00:51.467Z,19.42
2016-10-09T10:01:17.041Z,19.43
2016-10-09T10:01:42.593Z,19.43
2016-10-09T10:02:08.149Z,19.38
2016-10-09T10:03:01.482Z,19.47
2016-10-09T10:03:27.064Z,19.43
2016-10-09T10:03:52.609Z,19.42
2016-10-09T10:04:18.321Z,19.43
2016-10-09T10:04:43.888Z,19.39
2016-10-09T10:05:09.471Z,19.36
2016-10-09T10:05:35.031Z,19.46
2016-10-09T10:06:00.604Z,19.51
2016-10-09T10:06:26.150Z,19.51
2016-10-09T10:06:51.700Z,19.43
2016-10-09T10:07:17.256Z,19.42
2016-10-09T10:07:42.914Z,19.55
2016-10-09T10:08:08.460Z,19.42
2016-10-09T10:08:34.038Z,19.46
2016-10-09T10:08:59.601Z,19.42
2016-10-09T10:09:25.159Z,19.33
2016-10-09T10:09:50.720Z,19.36
2016-10-09T10:10:16.290Z,19.5
2016-10-09T10:10:41.892Z,19.39
2016-10-09T10:11:07.523Z,19.33
2016-10-09T10:11:33.261Z,19.51
2016-10-09T10:11:58.841Z,19.43
2016-10-09T10:12:24.422Z,19.38
2016-10-09T10:12:50.012Z,19.48
2016-10-09T10:13:43.207Z,19.46
2016-10-09T10:14:08.759Z,19.42
2016-10-09T10:14:34.483Z,19.53
2016-10-09T10:15:00.049Z,19.5
2016-10-09T10:15:25.612Z,19.47
2016-10-09T10:15:51.242Z,19.46
2016-10-09T10:16:16.794Z,19.43
2016-10-09T10:16:42.356Z,19.39
2016-10-09T10:17:07.933Z,19.42
2016-10-09T10:17:33.498Z,19.46
2016-10-09T10:17:59.062Z,19.5
2016-10-09T10:18:24.664Z,19.46
2016-10-09T10:18:50.239Z,19.46
2016-10-09T10:19:15.908Z,19.35
2016-10-09T10:19:41.509Z,19.46
2016-10-09T10:20:07.056Z,19.5
2016-10-09T10:20:32.603Z,19.4
2016-10-09T10:20:58.316Z,19.42
2016-10-09T10:21:23.899Z,19.5
2016-10-09T10:21:49.483Z,19.5
2016-10-09T10:22:15.074Z,19.46
2016-10-09T10:22:40.647Z,19.48
2016-10-09T10:23:06.199Z,19.47
2016-10-09T10:23:31.850Z,19.46
2016-10-09T10:23:57.414Z,19.5
2016-10-09T10:24:23.140Z,19.43
2016-10-09T10:24:48.714Z,19.5
2016-10-09T10:25:14.292Z,19.48
2016-10-09T10:25:39.895Z,19.47
2016-10-09T10:26:05.485Z,19.47
2016-10-09T10:26:31.125Z,19.43
2016-10-09T10:26:56.759Z,19.48
2016-10-09T10:27:22.327Z,19.48
2016-10-09T10:27:48.066Z,19.36
2016-10-09T10:28:13.620Z,19.42
2016-10-09T10:28:39.176Z,19.48
2016-10-09T10:29:04.728Z,19.47
2016-10-09T10:29:30.303Z,19.36
2016-10-09T10:29:55.891Z,19.47
2016-10-09T10:30:21.456Z,19.43
2016-10-09T10:30:47.027Z,19.47
2016-10-09T10:31:12.608Z,19.5
2016-10-09T10:31:38.225Z,19.33
2016-10-09T10:32:03.782Z,19.48
2016-10-09T10:32:29.342Z,19.42
2016-10-09T10:32:54.914Z,19.4
2016-10-09T10:33:20.498Z,19.42
2016-10-09T10:33:46.092Z,19.43
2016-10-09T10:34:11.659Z,19.46
2016-10-09T10:34:37.304Z,19.46
2016-10-09T10:35:02.853Z,19.39
2016-10-09T10:35:28.620Z,19.35
2016-10-09T10:35:54.187Z,19.39
2016-10-09T10:36:19.732Z,19.4
2016-10-09T10:36:45.287Z,19.39
2016-10-09T10:37:10.917Z,19.38
2016-10-09T10:37:36.486Z,19.39
2016-10-09T10:38:02.072Z,19.46
2016-10-09T10:38:27.710Z,19.4
2016-10-09T10:38:53.294Z,19.43
2016-10-09T10:39:18.853Z,19.4
2016-10-09T10:39:44.411Z,19.35
2016-10-09T10:40:09.998Z,19.4
2016-10-09T10:40:35.566Z,19.32
2016-10-09T10:41:01.145Z,19.32
2016-10-09T10:41:26.726Z,19.42
2016-10-09T10:41:52.317Z,19.43
2016-10-09T10:42:17.903Z,19.36
2016-10-09T10:42:43.493Z,19.38
2016-10-09T10:43:09.152Z,19.32
2016-10-09T10:43:34.770Z,19.39
2016-10-09T10:44:00.403Z,19.39
2016-10-09T10:44:25.975Z,19.35
2016-10-09T10:44:51.549Z,19.38
2016-10-09T10:45:17.147Z,19.4
2016-10-09T10:45:42.731Z,19.32
2016-10-09T10:46:08.316Z,19.38
2016-10-09T10:46:33.883Z,19.39
2016-10-09T10:46:59.445Z,19.31
2016-10-09T10:47:25.012Z,19.38
2016-10-09T10:47:50.591Z,19.42
2016-10-09T10:48:16.246Z,19.33
2016-10-09T10:48:41.815Z,19.39
2016-10-09T10:49:07.392Z,19.35
2016-10-09T10:50:00.411Z,19.35
2016-10-09T10:50:25.981Z,19.38
2016-10-09T10:50:51.632Z,19.31
2016-10-09T10:51:17.213Z,19.4
2016-10-09T10:51:42.825Z,19.42
2016-10-09T10:52:08.454Z,19.39
2016-10-09T10:52:34.280Z,19.38
2016-10-09T10:52:59.849Z,19.46
2016-10-09T10:53:25.441Z,19.33
2016-10-09T10:53:51.101Z,19.4
2016-10-09T10:54:16.682Z,19.35
2016-10-09T10:54:42.243Z,19.36
2016-10-09T10:55:07.806Z,19.35
2016-10-09T10:55:33.372Z,19.42
2016-10-09T10:55:58.985Z,19.33
2016-10-09T10:57:02.259Z,19.46
2016-10-09T10:57:55.237Z,19.46
2016-10-09T10:58:20.807Z,19.36
2016-10-09T10:58:46.387Z,19.4
2016-10-09T10:59:11.959Z,19.33
2016-10-09T10:59:37.535Z,19.46
2016-10-09T11:00:03.108Z,19.38
2016-10-09T11:00:28.683Z,19.46
2016-10-09T11:00:54.470Z,19.4
2016-10-09T11:01:20.046Z,19.46
2016-10-09T11:01:45.614Z,19.46
2016-10-09T11:02:11.183Z,19.42
2016-10-09T11:02:36.748Z,19.5
2016-10-09T11:03:02.300Z,19.54
2016-10-09T11:03:27.884Z,19.43
2016-10-09T11:03:53.474Z,19.51
2016-10-09T11:04:56.708Z,19.53
2016-10-09T11:05:22.275Z,19.54
2016-10-09T11:05:47.837Z,19.5
2016-10-09T11:06:13.401Z,19.54
2016-10-09T11:06:38.984Z,19.51
2016-10-09T11:07:04.574Z,19.5
2016-10-09T11:07:30.131Z,19.61
2016-10-09T11:07:55.654Z,19.6
2016-10-09T11:08:21.195Z,19.53
2016-10-09T11:08:46.752Z,19.61
2016-10-09T11:09:12.323Z,19.65
2016-10-09T11:09:37.876Z,19.69
2016-10-09T11:10:03.464Z,19.66
2016-10-09T11:10:29.015Z,19.66
2016-10-09T11:10:54.568Z,19.68
2016-10-09T11:11:20.213Z,19.68
2016-10-09T11:11:45.771Z,19.65
2016-10-09T11:12:11.331Z,19.73
2016-10-09T11:12:36.908Z,19.69
2016-10-09T11:13:02.473Z,19.7
2016-10-09T11:13:55.872Z,19.68
2016-10-09T11:14:21.430Z,19.7
2016-10-09T11:14:46.995Z,19.76
2016-10-09T11:15:12.588Z,19.79
2016-10-09T11:15:38.166Z,19.84
2016-10-09T11:16:03.726Z,19.86
2016-10-09T11:16:29.341Z,19.83
2016-10-09T11:16:54.881Z,19.9
2016-10-09T11:17:20.432Z,19.95
2016-10-09T11:17:45.983Z,19.94
2016-10-09T11:18:11.651Z,19.94
2016-10-09T11:18:37.216Z,19.97
2016-10-09T11:19:02.824Z,19.98
2016-10-09T11:19:28.368Z,20.05
2016-10-09T11:19:53.937Z,19.98
2016-10-09T11:20:19.509Z,20.03
2016-10-09T11:20:45.062Z,20.13
2016-10-09T11:21:10.738Z,20.05
2016-10-09T11:21:36.299Z,20.09
2016-10-09T11:22:01.882Z,20.16
2016-10-09T11:22:27.450Z,20.18
2016-10-09T11:22:53.049Z,20.21
2016-10-09T11:23:18.652Z,20.28
2016-10-09T11:23:44.224Z,20.28
2016-10-09T11:24:09.800Z,20.25
2016-10-09T11:24:35.399Z,20.35
2016-10-09T11:25:01.178Z,20.34
2016-10-09T11:25:26.758Z,20.31
2016-10-09T11:25:52.310Z,20.3
2016-10-09T11:26:17.884Z,20.31
2016-10-09T11:26:43.604Z,20.41
2016-10-09T11:27:09.179Z,20.35
2016-10-09T11:27:34.786Z,20.42
2016-10-09T11:28:00.355Z,20.49
2016-10-09T11:28:58.471Z,20.51
2016-10-09T11:29:24.049Z,20.58
2016-10-09T11:29:49.642Z,20.61
2016-10-09T11:30:15.261Z,20.5
2016-10-09T11:30:40.832Z,20.51
2016-10-09T11:31:06.423Z,20.54
2016-10-09T11:31:31.999Z,20.51
2016-10-09T11:31:57.635Z,20.56
2016-10-09T11:32:23.181Z,20.54
2016-10-09T11:32:48.745Z,20.54
2016-10-09T11:33:14.495Z,20.51
2016-10-09T11:33:40.060Z,20.58
2016-10-09T11:34:05.645Z,20.59
2016-10-09T11:34:31.272Z,20.61
2016-10-09T11:34:56.903Z,20.5